Time;durP1;ratioP1;P1;durP2;ratioP2;P2;SDS_P1;SDS_P2;PMS_P1;PMS_P2;Temp;Humidity;BMP_temperature;BMP_pressure;BME280_temperature;BME280_humidity;BME280_pressure;Samples;Min_cycle;Max_cycle;Signal;HPM_P1;HPM_P2
2022/07/28 00:00:28;;;;;;;0.40;0.40;;;10.60;99.90;;;;;;4936895;28;20073;-82
2022/07/28 00:02:53;;;;;;;0.40;0.40;;;10.60;99.90;;;;;;4925974;28;20077;-82
2022/07/28 00:05:19;;;;;;;0.50;0.50;;;10.50;99.90;;;;;;4936500;28;20142;-82
2022/07/28 00:07:45;;;;;;;0.40;0.40;;;10.60;99.90;;;;;;4923544;28;20046;-82
2022/07/28 00:10:11;;;;;;;0.40;0.40;;;10.80;99.90;;;;;;4924296;28;20074;-82
2022/07/28 00:12:38;;;;;;;0.40;0.40;;;10.80;99.90;;;;;;4905609;28;20051;-81
2022/07/28 00:15:05;;;;;;;0.40;0.40;;;10.80;99.90;;;;;;4909183;28;20054;-82
2022/07/28 00:17:31;;;;;;;0.40;0.40;;;10.80;99.90;;;;;;4905123;28;20145;-82
2022/07/28 00:19:57;;;;;;;0.40;0.40;;;10.60;99.90;;;;;;4925580;28;20595;-82
2022/07/28 00:22:23;;;;;;;0.40;0.40;;;10.40;99.90;;;;;;4920572;28;20077;-82
2022/07/28 00:24:49;;;;;;;0.40;0.40;;;10.50;99.90;;;;;;4937785;28;20047;-82
2022/07/28 00:27:16;;;;;;;0.40;0.40;;;10.50;99.90;;;;;;4921553;28;20205;-82
2022/07/28 00:29:42;;;;;;;0.40;0.40;;;10.40;99.90;;;;;;4937734;28;20168;-82
2022/07/28 00:32:08;;;;;;;0.40;0.40;;;10.50;99.90;;;;;;4937191;28;20167;-82
2022/07/28 00:34:34;;;;;;;0.40;0.40;;;10.50;99.90;;;;;;4925425;28;20129;-82
2022/07/28 00:37:00;;;;;;;0.40;0.40;;;10.50;99.90;;;;;;4923406;28;20054;-81
2022/07/28 00:39:25;;;;;;;0.40;0.40;;;10.40;99.90;;;;;;4919749;28;20165;-82
2022/07/28 00:41:51;;;;;;;0.40;0.40;;;10.50;99.90;;;;;;4905524;28;20720;-82
2022/07/28 00:44:17;;;;;;;0.40;0.40;;;10.50;99.90;;;;;;4920711;28;20078;-82
2022/07/28 00:46:44;;;;;;;0.40;0.40;;;10.50;99.90;;;;;;4907481;28;20197;-82
2022/07/28 00:49:10;;;;;;;0.40;0.40;;;10.50;99.90;;;;;;4923159;28;20090;-82
2022/07/28 00:51:36;;;;;;;0.50;0.50;;;10.40;99.90;;;;;;4917909;28;20053;-82
2022/07/28 00:54:03;;;;;;;0.40;0.40;;;10.50;99.90;;;;;;4923353;28;20051;-82
2022/07/28 00:56:29;;;;;;;0.50;0.50;;;10.50;99.90;;;;;;4919726;28;20113;-82
2022/07/28 00:58:55;;;;;;;0.40;0.40;;;10.50;99.90;;;;;;4926034;28;20055;-82
2022/07/28 01:01:21;;;;;;;0.40;0.40;;;10.50;99.90;;;;;;4907884;28;20065;-82
2022/07/28 01:03:58;;;;;;;0.40;0.40;;;10.50;99.90;;;;;;4935193;28;20078;-82
2022/07/28 01:06:48;;;;;;;0.40;0.40;;;10.60;99.90;;;;;;4918679;28;20050;-82
2022/07/28 01:09:39;;;;;;;0.40;0.40;;;10.70;99.90;;;;;;4944912;28;20519;-81
2022/07/28 01:12:41;;;;;;;0.40;0.40;;;10.80;99.90;;;;;;4946271;28;20943;-81
2022/07/28 01:15:06;;;;;;;0.40;0.40;;;10.80;99.90;;;;;;4932293;28;20054;-82
2022/07/28 01:17:59;;;;;;;0.40;0.40;;;10.80;99.90;;;;;;4917547;28;20387;-82
2022/07/28 01:20:59;;;;;;;0.40;0.40;;;10.90;99.90;;;;;;4936348;28;20133;-82
2022/07/28 01:23:30;;;;;;;0.40;0.40;;;10.80;99.90;;;;;;4909842;28;20634;-81
2022/07/28 01:26:17;;;;;;;0.40;0.40;;;10.90;99.90;;;;;;4928471;28;20070;-81
2022/07/28 01:29:40;;;;;;;0.40;0.40;;;10.90;99.90;;;;;;4923251;28;20122;-82
2022/07/28 01:32:13;;;;;;;0.47;0.47;;;10.90;99.90;;;;;;4922192;28;20814;-83
2022/07/28 01:34:51;;;;;;;0.47;0.47;;;10.90;99.90;;;;;;4919283;28;20054;-83
2022/07/28 01:37:23;;;;;;;0.50;0.50;;;10.70;99.90;;;;;;4941203;28;20050;-83
2022/07/28 01:39:52;;;;;;;0.40;0.40;;;10.50;99.90;;;;;;4933648;28;20054;-82
2022/07/28 01:42:21;;;;;;;0.40;0.40;;;10.50;99.90;;;;;;4948730;28;20050;-82
2022/07/28 01:44:50;;;;;;;0.40;0.40;;;10.60;99.90;;;;;;4935911;28;20153;-82
2022/07/28 01:47:18;;;;;;;0.40;0.40;;;10.60;99.90;;;;;;4911574;28;20177;-82
2022/07/28 01:49:47;;;;;;;0.40;0.40;;;10.60;99.90;;;;;;4928570;28;20054;-82
2022/07/28 01:52:15;;;;;;;0.43;0.43;;;10.50;99.90;;;;;;4931021;28;20062;-81
2022/07/28 01:54:43;;;;;;;0.40;0.40;;;10.40;99.90;;;;;;4930173;28;20693;-80
2022/07/28 01:57:13;;;;;;;0.40;0.40;;;10.50;99.90;;;;;;4938024;28;20501;-81
2022/07/28 01:59:39;;;;;;;0.40;0.40;;;10.50;99.90;;;;;;4932427;28;20063;-82
2022/07/28 02:02:07;;;;;;;0.40;0.40;;;10.40;99.90;;;;;;4930081;28;20055;-83
2022/07/28 02:04:37;;;;;;;0.40;0.40;;;10.50;99.90;;;;;;4917152;28;20640;-82
2022/07/28 02:07:05;;;;;;;0.40;0.40;;;10.40;99.90;;;;;;4917353;28;20130;-83
2022/07/28 02:09:33;;;;;;;0.40;0.40;;;10.40;99.90;;;;;;4904170;28;20139;-82
2022/07/28 02:12:02;;;;;;;0.40;0.40;;;10.50;99.90;;;;;;4920483;28;20066;-82
2022/07/28 02:14:29;;;;;;;0.40;0.40;;;10.60;99.90;;;;;;4919641;28;20074;-82
2022/07/28 02:17:06;;;;;;;0.40;0.40;;;10.70;99.90;;;;;;4915213;28;20490;-82
2022/07/28 02:19:34;;;;;;;0.40;0.40;;;10.70;99.90;;;;;;4922012;28;20058;-82
2022/07/28 02:22:02;;;;;;;0.40;0.40;;;10.70;99.90;;;;;;4914859;28;20054;-82
2022/07/28 02:24:30;;;;;;;0.45;0.45;;;10.70;99.90;;;;;;4922119;28;20133;-81
2022/07/28 02:27:08;;;;;;;0.40;0.40;;;10.80;99.90;;;;;;4921691;28;20141;-81
2022/07/28 02:29:47;;;;;;;0.40;0.40;;;10.90;99.90;;;;;;4909631;28;20129;-82
2022/07/28 02:32:36;;;;;;;0.50;0.50;;;10.90;99.90;;;;;;4923878;28;20113;-82
2022/07/28 02:35:13;;;;;;;0.40;0.40;;;10.90;99.90;;;;;;4922132;28;20046;-82
2022/07/28 02:37:43;;;;;;;0.40;0.40;;;10.80;99.90;;;;;;4934167;28;20057;-81
2022/07/28 02:40:13;;;;;;;0.40;0.40;;;10.80;99.90;;;;;;4919269;28;20047;-82
2022/07/28 02:42:40;;;;;;;0.40;0.40;;;10.80;99.90;;;;;;4921130;28;20525;-82
2022/07/28 02:45:10;;;;;;;0.40;0.40;;;10.80;99.90;;;;;;4926561;28;20059;-83
2022/07/28 02:47:42;;;;;;;0.40;0.40;;;10.80;99.90;;;;;;4937435;28;20449;-83
2022/07/28 02:50:10;;;;;;;0.40;0.40;;;10.80;99.90;;;;;;4920484;28;20047;-83
2022/07/28 02:52:37;;;;;;;0.40;0.40;;;10.50;99.90;;;;;;4922800;28;20114;-83
2022/07/28 02:55:04;;;;;;;0.40;0.40;;;10.20;99.90;;;;;;4903309;28;20066;-82
2022/07/28 02:57:31;;;;;;;0.40;0.40;;;9.90;99.90;;;;;;4908195;28;20429;-83
2022/07/28 02:59:57;;;;;;;0.40;0.40;;;9.80;99.90;;;;;;4922465;28;20051;-83
2022/07/28 03:02:24;;;;;;;0.40;0.40;;;9.90;99.90;;;;;;4937173;28;20713;-83
2022/07/28 03:04:57;;;;;;;0.40;0.40;;;10.00;99.90;;;;;;4921991;28;20081;-83
2022/07/28 03:07:31;;;;;;;0.40;0.40;;;10.10;99.90;;;;;;4921385;28;20061;-82
2022/07/28 03:09:58;;;;;;;0.40;0.40;;;10.10;99.90;;;;;;4916549;28;20500;-83
2022/07/28 03:12:25;;;;;;;0.40;0.40;;;10.10;99.90;;;;;;4922704;28;20084;-82
2022/07/28 03:14:50;;;;;;;0.43;0.43;;;10.10;99.90;;;;;;4919587;28;20050;-81
2022/07/28 03:17:16;;;;;;;0.40;0.40;;;10.20;99.90;;;;;;4915718;28;20086;-82
2022/07/28 03:19:43;;;;;;;0.40;0.40;;;10.20;99.90;;;;;;4920846;28;20047;-83
2022/07/28 03:22:10;;;;;;;0.40;0.40;;;10.10;99.90;;;;;;4914622;28;20051;-83
2022/07/28 03:24:39;;;;;;;0.40;0.40;;;10.10;99.90;;;;;;4918715;28;20138;-82
2022/07/28 03:27:14;;;;;;;0.40;0.40;;;10.00;99.90;;;;;;4925731;28;20062;-82
2022/07/28 03:29:42;;;;;;;0.40;0.40;;;10.10;99.90;;;;;;4932493;28;20055;-82
2022/07/28 03:32:08;;;;;;;0.47;0.47;;;10.10;99.90;;;;;;4933934;28;20120;-82
2022/07/28 03:34:35;;;;;;;0.43;0.43;;;10.10;99.90;;;;;;4928483;28;20055;-82
2022/07/28 03:37:05;;;;;;;0.40;0.40;;;10.10;99.90;;;;;;4946680;28;20125;-82
2022/07/28 03:39:36;;;;;;;0.40;0.40;;;10.00;99.90;;;;;;4928578;28;20718;-82
2022/07/28 03:42:03;;;;;;;0.50;0.50;;;9.90;99.90;;;;;;4928119;28;20053;-82
2022/07/28 03:44:29;;;;;;;0.40;0.40;;;9.90;99.90;;;;;;4931218;28;20077;-81
2022/07/28 03:46:55;;;;;;;0.40;0.40;;;9.80;99.90;;;;;;4929636;28;20146;-82
2022/07/28 03:49:21;;;;;;;0.40;0.40;;;9.80;99.90;;;;;;4912918;28;20059;-82
2022/07/28 03:51:47;;;;;;;0.50;0.50;;;9.80;99.90;;;;;;4931667;28;20043;-82
2022/07/28 03:54:13;;;;;;;0.40;0.40;;;9.90;99.90;;;;;;4929172;28;20055;-82
2022/07/28 03:56:39;;;;;;;0.40;0.40;;;9.90;99.90;;;;;;4931049;28;20466;-82
2022/07/28 03:59:05;;;;;;;0.40;0.40;;;9.60;99.90;;;;;;4943945;28;21305;-82
2022/07/28 04:01:30;;;;;;;0.40;0.40;;;9.60;99.90;;;;;;4935587;28;20457;-82
2022/07/28 04:03:56;;;;;;;0.40;0.40;;;9.60;99.90;;;;;;4929466;28;20542;-82
2022/07/28 04:06:22;;;;;;;0.40;0.40;;;9.60;99.90;;;;;;4924643;28;20051;-82
2022/07/28 04:08:48;;;;;;;0.40;0.40;;;9.60;99.90;;;;;;4923736;28;20505;-82
2022/07/28 04:11:14;;;;;;;0.40;0.40;;;9.60;99.90;;;;;;4918405;28;20047;-82
2022/07/28 04:13:39;;;;;;;0.40;0.40;;;9.50;99.90;;;;;;4917952;28;20058;-82
2022/07/28 04:16:06;;;;;;;0.40;0.40;;;9.50;99.90;;;;;;4920939;28;20050;-82
2022/07/28 04:18:32;;;;;;;0.40;0.40;;;9.50;99.90;;;;;;4920065;28;20868;-81
2022/07/28 04:20:58;;;;;;;0.40;0.40;;;9.50;99.90;;;;;;4914039;28;20697;-82
2022/07/28 04:23:24;;;;;;;0.40;0.40;;;9.50;99.90;;;;;;4903348;28;20043;-82
2022/07/28 04:25:50;;;;;;;0.40;0.40;;;9.50;99.90;;;;;;4914942;28;20062;-82
2022/07/28 04:28:16;;;;;;;0.40;0.40;;;9.60;99.90;;;;;;4920041;28;20051;-83
2022/07/28 04:30:42;;;;;;;0.40;0.40;;;9.70;99.90;;;;;;4905826;28;20058;-82
2022/07/28 04:33:07;;;;;;;0.40;0.40;;;9.70;99.90;;;;;;4915858;28;20055;-82
2022/07/28 04:35:33;;;;;;;0.40;0.40;;;9.70;99.90;;;;;;4918046;28;20166;-82
2022/07/28 04:38:00;;;;;;;0.40;0.40;;;9.70;99.90;;;;;;4927857;28;20053;-83
2022/07/28 04:40:26;;;;;;;0.40;0.40;;;9.80;99.90;;;;;;4936036;28;20070;-82
2022/07/28 04:42:52;;;;;;;0.40;0.40;;;9.70;99.90;;;;;;4922306;28;20534;-82
2022/07/28 04:45:18;;;;;;;0.40;0.40;;;9.80;99.90;;;;;;4918943;28;20200;-83
2022/07/28 04:47:44;;;;;;;0.47;0.47;;;9.80;99.90;;;;;;4919466;28;21208;-83
2022/07/28 04:50:14;;;;;;;0.47;0.47;;;9.80;99.90;;;;;;4921163;28;20043;-80
2022/07/28 04:52:40;;;;;;;0.50;0.50;;;9.90;99.90;;;;;;4906407;28;20110;-81
2022/07/28 04:55:07;;;;;;;0.40;0.40;;;9.90;99.90;;;;;;4916961;28;20631;-82
2022/07/28 04:57:33;;;;;;;0.40;0.40;;;10.00;99.90;;;;;;4923005;28;20126;-81
2022/07/28 04:59:59;;;;;;;0.40;0.40;;;10.10;99.90;;;;;;4919512;28;20055;-82
2022/07/28 05:02:26;;;;;;;0.40;0.40;;;10.30;99.90;;;;;;4930938;28;20844;-81
2022/07/28 05:04:52;;;;;;;0.40;0.40;;;11.40;99.90;;;;;;4902179;28;20055;-81
2022/07/28 05:07:19;;;;;;;0.40;0.40;;;13.30;99.90;;;;;;4915086;28;20055;-82
2022/07/28 05:09:45;;;;;;;0.40;0.40;;;14.60;99.90;;;;;;4920619;28;20222;-82
2022/07/28 05:12:11;;;;;;;0.40;0.40;;;15.80;99.90;;;;;;4916392;28;20053;-82
2022/07/28 05:14:37;;;;;;;0.40;0.40;;;16.70;99.90;;;;;;4918228;28;20043;-83
2022/07/28 05:17:03;;;;;;;0.40;0.40;;;17.70;99.90;;;;;;4918094;28;20696;-84
2022/07/28 05:19:29;;;;;;;0.40;0.40;;;18.00;99.90;;;;;;4924291;28;20051;-83
2022/07/28 05:21:54;;;;;;;0.30;0.30;;;19.30;99.90;;;;;;4892587;28;20042;-83
2022/07/28 05:24:20;;;;;;;0.30;0.30;;;19.30;99.90;;;;;;4917265;28;20046;-83
2022/07/28 05:26:46;;;;;;;0.30;0.30;;;20.30;99.90;;;;;;4921524;28;20093;-82
2022/07/28 05:29:12;;;;;;;0.30;0.30;;;20.80;99.90;;;;;;4916682;28;20070;-82
2022/07/28 05:31:38;;;;;;;0.30;0.30;;;21.10;99.90;;;;;;4922348;28;20153;-82
2022/07/28 05:34:04;;;;;;;0.30;0.30;;;21.90;99.90;;;;;;4914786;28;20425;-83
2022/07/28 05:36:30;;;;;;;0.30;0.30;;;22.10;99.90;;;;;;4920062;28;20082;-82
2022/07/28 05:38:56;;;;;;;0.30;0.30;;;22.70;99.90;;;;;;4919394;28;20279;-82
2022/07/28 05:41:22;;;;;;;0.40;0.40;;;23.00;99.90;;;;;;4916664;28;20039;-82
2022/07/28 05:43:48;;;;;;;0.30;0.30;;;22.80;99.90;;;;;;4905817;28;20050;-82
2022/07/28 05:46:14;;;;;;;0.30;0.30;;;23.10;99.90;;;;;;4912812;28;20613;-82
2022/07/28 05:48:40;;;;;;;0.30;0.30;;;23.00;99.90;;;;;;4934671;28;20058;-82
2022/07/28 05:51:06;;;;;;;0.30;0.30;;;23.30;99.90;;;;;;4920190;28;20055;-82
2022/07/28 05:53:31;;;;;;;0.30;0.30;;;23.10;99.90;;;;;;4915192;28;21611;-83
2022/07/28 05:55:57;;;;;;;0.40;0.40;;;21.20;99.90;;;;;;4906113;28;20050;-83
2022/07/28 05:58:23;;;;;;;0.30;0.30;;;20.10;99.90;;;;;;4920305;28;20090;-82
2022/07/28 06:00:49;;;;;;;0.30;0.30;;;19.40;99.90;;;;;;4904704;28;20702;-81
2022/07/28 06:03:15;;;;;;;0.30;0.30;;;19.00;99.90;;;;;;4921381;28;20078;-82
2022/07/28 06:05:41;;;;;;;0.40;0.40;;;18.40;99.90;;;;;;4936218;28;20123;-82
2022/07/28 06:08:07;;;;;;;0.30;0.30;;;17.70;99.90;;;;;;4917405;28;20306;-82
2022/07/28 06:13:17;;;;;;;;;;;16.80;99.90;;;;;;4914571;28;20066;-81
2022/07/28 06:15:46;;;;;;;0.30;0.30;;;16.50;99.90;;;;;;4915952;28;20479;-82
2022/07/28 06:18:12;;;;;;;0.30;0.30;;;16.80;99.90;;;;;;4919116;28;20053;-82
2022/07/28 06:20:38;;;;;;;0.40;0.40;;;17.40;99.90;;;;;;4917952;28;20113;-83
2022/07/28 06:23:04;;;;;;;0.30;0.30;;;18.20;99.90;;;;;;4913611;28;20345;-82
2022/07/28 06:25:30;;;;;;;0.30;0.30;;;18.10;99.90;;;;;;4912515;28;20908;-83
2022/07/28 06:27:59;;;;;;;0.30;0.30;;;19.00;99.90;;;;;;4925306;28;20106;-83
2022/07/28 06:30:26;;;;;;;0.30;0.30;;;19.00;99.90;;;;;;4929089;28;20058;-82
2022/07/28 06:32:52;;;;;;;0.30;0.30;;;19.50;99.90;;;;;;4929480;28;20042;-83
2022/07/28 06:35:18;;;;;;;0.30;0.30;;;19.90;99.90;;;;;;4928436;28;20529;-82
2022/07/28 06:37:46;;;;;;;0.30;0.30;;;20.10;99.90;;;;;;4936345;28;21365;-83
2022/07/28 06:40:13;;;;;;;0.30;0.30;;;19.80;99.90;;;;;;4930123;28;20062;-85
2022/07/28 06:42:40;;;;;;;0.30;0.30;;;19.50;99.90;;;;;;4927659;28;20058;-83
2022/07/28 06:45:07;;;;;;;0.30;0.30;;;18.80;99.90;;;;;;4921138;28;20103;-83
2022/07/28 06:47:33;;;;;;;0.30;0.30;;;20.30;99.90;;;;;;4906757;28;20066;-83
2022/07/28 06:49:59;;;;;;;0.30;0.30;;;20.10;99.90;;;;;;4916830;28;20073;-86
2022/07/28 06:52:26;;;;;;;0.30;0.30;;;19.40;99.90;;;;;;4928909;28;20042;-83
2022/07/28 06:54:52;;;;;;;0.30;0.30;;;18.60;99.90;;;;;;4916894;28;20054;-84
2022/07/28 06:57:22;;;;;;;0.30;0.30;;;18.40;99.90;;;;;;4928893;28;20767;-83
2022/07/28 06:59:48;;;;;;;0.30;0.30;;;17.80;99.90;;;;;;4929708;28;20117;-84
2022/07/28 07:02:15;;;;;;;0.30;0.30;;;18.00;99.90;;;;;;4929498;28;20071;-83
2022/07/28 07:04:41;;;;;;;0.30;0.30;;;18.00;99.90;;;;;;4929377;28;20081;-85
2022/07/28 07:07:07;;;;;;;0.30;0.30;;;17.30;99.90;;;;;;4934985;28;20510;-83
2022/07/28 07:09:33;;;;;;;0.30;0.30;;;17.10;99.90;;;;;;4929889;28;20051;-86
2022/07/28 07:11:59;;;;;;;0.30;0.30;;;17.50;99.90;;;;;;4936280;28;20043;-82
2022/07/28 07:14:25;;;;;;;0.30;0.30;;;17.40;99.90;;;;;;4933724;28;20070;-84
2022/07/28 07:16:52;;;;;;;0.75;0.50;;;18.00;99.90;;;;;;4919601;28;20055;-84
2022/07/28 07:19:19;;;;;;;0.30;0.30;;;17.90;99.90;;;;;;4928006;28;20058;-83
2022/07/28 07:21:45;;;;;;;0.30;0.30;;;18.00;99.90;;;;;;4932499;28;20062;-83
2022/07/28 07:24:11;;;;;;;0.30;0.30;;;18.30;99.90;;;;;;4932671;28;20520;-84
2022/07/28 07:26:37;;;;;;;0.30;0.30;;;18.60;99.90;;;;;;4929503;28;20047;-84
2022/07/28 07:29:04;;;;;;;0.30;0.30;;;17.90;99.90;;;;;;4933440;28;20509;-83
2022/07/28 07:31:31;;;;;;;0.30;0.30;;;17.80;99.90;;;;;;4938218;28;20138;-83
2022/07/28 07:33:58;;;;;;;0.30;0.30;;;17.40;99.90;;;;;;4921079;28;20062;-82
2022/07/28 07:36:24;;;;;;;0.38;0.38;;;17.80;99.90;;;;;;4932142;28;20075;-83
2022/07/28 07:38:50;;;;;;;0.30;0.30;;;18.00;99.90;;;;;;4933865;28;20167;-84
2022/07/28 07:41:17;;;;;;;0.30;0.30;;;18.00;99.90;;;;;;4932673;28;20061;-83
2022/07/28 07:43:44;;;;;;;0.30;0.30;;;18.00;99.90;;;;;;4934518;28;20054;-84
2022/07/28 07:46:10;;;;;;;0.30;0.30;;;18.00;99.90;;;;;;4935549;28;20501;-81
2022/07/28 07:48:36;;;;;;;0.30;0.30;;;18.00;99.90;;;;;;4950012;28;20066;-84
2022/07/28 07:51:01;;;;;;;0.30;0.30;;;17.70;99.90;;;;;;4933699;28;20065;-85
2022/07/28 07:53:27;;;;;;;0.40;0.40;;;17.80;99.90;;;;;;4929747;28;20047;-83
2022/07/28 07:55:53;;;;;;;0.30;0.30;;;17.80;99.90;;;;;;4939876;28;20807;-85
2022/07/28 07:58:19;;;;;;;0.30;0.30;;;17.70;99.90;;;;;;4937789;28;20050;-83
2022/07/28 08:00:45;;;;;;;0.30;0.30;;;17.90;99.90;;;;;;4905782;28;20057;-83
2022/07/28 08:03:11;;;;;;;0.30;0.30;;;18.60;99.90;;;;;;4937612;28;20062;-84
2022/07/28 08:05:36;;;;;;;0.40;0.40;;;18.40;99.90;;;;;;4916833;28;20048;-84
2022/07/28 08:08:05;;;;;;;0.30;0.30;;;19.00;99.90;;;;;;4931860;28;20414;-82
2022/07/28 08:10:33;;;;;;;0.30;0.30;;;19.20;99.90;;;;;;4930834;28;20104;-85
2022/07/28 08:13:00;;;;;;;0.30;0.30;;;18.30;99.90;;;;;;4939794;28;20088;-86
2022/07/28 08:15:26;;;;;;;0.30;0.30;;;18.70;99.90;;;;;;4923097;28;20062;-86
2022/07/28 08:17:52;;;;;;;0.30;0.30;;;19.30;99.90;;;;;;4928079;28;20053;-83
2022/07/28 08:20:18;;;;;;;0.30;0.30;;;18.80;99.90;;;;;;4924562;28;20045;-85
2022/07/28 08:22:48;;;;;;;0.30;0.30;;;18.40;99.90;;;;;;4938231;28;20631;-83
2022/07/28 08:25:15;;;;;;;0.30;0.30;;;19.30;99.90;;;;;;4935233;28;20173;-83
2022/07/28 08:27:40;;;;;;;0.30;0.30;;;19.20;99.90;;;;;;4920084;28;20078;-82
2022/07/28 08:30:07;;;;;;;0.30;0.30;;;19.20;99.90;;;;;;4927115;28;20489;-83
2022/07/28 08:32:33;;;;;;;0.30;0.30;;;19.00;99.90;;;;;;4932788;28;20051;-83
2022/07/28 08:34:59;;;;;;;0.30;0.30;;;19.20;99.90;;;;;;4910377;28;20082;-83
2022/07/28 08:37:25;;;;;;;0.30;0.30;;;18.90;99.90;;;;;;4929927;28;21705;-84
2022/07/28 08:39:51;;;;;;;0.30;0.30;;;18.90;99.90;;;;;;4916979;28;20804;-83
2022/07/28 08:42:32;;;;;;;0.30;0.30;;;19.20;99.90;;;;;;4935212;28;20071;-85
2022/07/28 08:45:05;;;;;;;0.30;0.30;;;18.70;99.90;;;;;;4944437;28;20054;-84
2022/07/28 08:47:34;;;;;;;0.30;0.30;;;19.60;99.90;;;;;;4948417;28;20104;-85
2022/07/28 08:50:00;;;;;;;0.30;0.30;;;20.10;99.90;;;;;;4905770;28;20310;-84
2022/07/28 08:52:31;;;;;;;0.30;0.30;;;19.80;99.90;;;;;;4947448;28;20116;-83
2022/07/28 08:55:00;;;;;;;0.30;0.30;;;19.20;99.90;;;;;;4951946;28;20081;-84
2022/07/28 08:57:42;;;;;;;0.25;0.25;;;19.10;99.90;;;;;;4932466;28;20161;-85
2022/07/28 09:00:12;;;;;;;0.30;0.30;;;20.00;99.90;;;;;;4929895;28;20046;-83
2022/07/28 09:02:41;;;;;;;0.30;0.30;;;19.60;99.90;;;;;;4934623;28;20380;-83
2022/07/28 09:05:08;;;;;;;0.30;0.30;;;19.40;99.90;;;;;;4951166;28;20109;-82
2022/07/28 09:07:40;;;;;;;0.30;0.30;;;19.50;99.90;;;;;;4930639;28;20050;-83
2022/07/28 09:10:10;;;;;;;0.30;0.30;;;20.30;99.90;;;;;;4943729;28;20124;-83
2022/07/28 09:12:41;;;;;;;0.30;0.30;;;20.30;99.90;;;;;;4915131;28;20065;-86
2022/07/28 09:15:08;;;;;;;0.30;0.30;;;20.00;99.90;;;;;;4920090;28;20497;-82
2022/07/28 09:17:35;;;;;;;0.30;0.30;;;19.30;99.90;;;;;;4950152;28;20485;-85
2022/07/28 09:20:02;;;;;;;0.30;0.30;;;19.20;99.90;;;;;;4921466;28;20078;-82
2022/07/28 09:22:28;;;;;;;0.40;0.40;;;18.80;99.90;;;;;;4932987;28;20054;-83
2022/07/28 09:24:53;;;;;;;0.30;0.30;;;19.50;99.90;;;;;;4935767;28;20548;-83
2022/07/28 09:27:19;;;;;;;0.30;0.30;;;20.30;99.90;;;;;;4933961;28;20068;-84
2022/07/28 09:29:47;;;;;;;0.30;0.30;;;19.90;99.90;;;;;;4932258;28;20200;-85
2022/07/28 09:32:15;;;;;;;0.30;0.30;;;20.30;99.90;;;;;;4932165;28;20422;-82
2022/07/28 09:34:46;;;;;;;0.30;0.30;;;20.80;99.90;;;;;;4933679;28;20093;-81
2022/07/28 09:37:22;;;;;;;0.35;0.35;;;20.70;99.90;;;;;;4950108;28;20512;-85
2022/07/28 09:39:51;;;;;;;0.30;0.30;;;19.60;99.90;;;;;;4929254;28;20553;-84
2022/07/28 09:42:18;;;;;;;0.30;0.30;;;20.30;99.90;;;;;;4923020;28;20521;-83
2022/07/28 09:44:45;;;;;;;0.30;0.30;;;21.20;99.90;;;;;;4929878;28;20088;-82
2022/07/28 09:47:31;;;;;;;0.28;0.28;;;20.10;99.90;;;;;;4950976;28;20069;-83
2022/07/28 09:49:58;;;;;;;0.30;0.30;;;21.10;99.90;;;;;;4932948;28;20059;-86
2022/07/28 09:52:36;;;;;;;0.30;0.30;;;20.60;99.90;;;;;;4932108;28;20047;-84
2022/07/28 09:55:06;;;;;;;0.30;0.30;;;20.60;99.90;;;;;;4934822;28;20046;-82
2022/07/28 09:57:34;;;;;;;0.30;0.30;;;19.90;99.90;;;;;;4932132;28;20042;-84
2022/07/28 10:00:00;;;;;;;0.30;0.30;;;20.40;99.90;;;;;;4932682;28;20046;-83
2022/07/28 10:02:30;;;;;;;0.30;0.30;;;20.30;99.90;;;;;;4933880;28;20074;-85
2022/07/28 10:04:57;;;;;;;0.30;0.30;;;20.10;99.90;;;;;;4934547;28;20090;-85
2022/07/28 10:07:23;;;;;;;0.30;0.30;;;20.60;99.90;;;;;;4906718;28;20053;-83
2022/07/28 10:09:58;;;;;;;0.30;0.30;;;20.20;99.90;;;;;;4918010;28;20046;-86
2022/07/28 10:12:26;;;;;;;0.30;0.30;;;19.70;99.90;;;;;;4920419;28;20061;-85
2022/07/28 10:14:54;;;;;;;0.30;0.30;;;19.70;99.90;;;;;;4928772;28;20082;-82
2022/07/28 10:17:30;;;;;;;0.30;0.30;;;19.70;99.90;;;;;;4928458;28;20047;-84
2022/07/28 10:20:02;;;;;;;0.30;0.30;;;20.30;99.90;;;;;;4932831;28;20149;-85
2022/07/28 10:22:32;;;;;;;0.30;0.30;;;20.50;99.90;;;;;;4929221;28;20046;-85
2022/07/28 10:25:08;;;;;;;0.30;0.30;;;20.40;99.90;;;;;;4930970;28;20082;-84
2022/07/28 10:27:36;;;;;;;0.30;0.30;;;21.00;99.90;;;;;;4944322;28;20078;-87
2022/07/28 10:30:04;;;;;;;0.30;0.30;;;21.00;99.90;;;;;;4916093;28;20647;-83
2022/07/28 10:32:40;;;;;;;0.30;0.30;;;21.20;99.90;;;;;;4931093;28;20652;-82
2022/07/28 10:35:12;;;;;;;0.30;0.30;;;21.20;99.90;;;;;;4931616;28;20059;-82
2022/07/28 10:37:51;;;;;;;0.30;0.30;;;20.40;99.90;;;;;;4931300;28;20056;-84
2022/07/28 10:40:24;;;;;;;0.30;0.30;;;21.30;99.90;;;;;;4943946;28;20043;-82
2022/07/28 10:42:51;;;;;;;0.30;0.30;;;20.60;99.90;;;;;;4953050;28;20522;-85
2022/07/28 10:45:17;;;;;;;0.30;0.30;;;21.40;99.90;;;;;;4935217;28;20085;-84
2022/07/28 10:47:44;;;;;;;0.30;0.30;;;20.70;99.90;;;;;;4938052;28;20137;-83
2022/07/28 10:50:10;;;;;;;0.30;0.30;;;20.50;99.90;;;;;;4936251;28;20055;-83
2022/07/28 10:52:39;;;;;;;0.30;0.30;;;20.60;99.90;;;;;;4952601;28;20636;-84
2022/07/28 10:55:17;;;;;;;0.30;0.30;;;20.10;99.90;;;;;;4950066;28;20043;-85
2022/07/28 10:57:58;;;;;;;0.30;0.30;;;20.70;99.90;;;;;;4917869;28;20345;-86
2022/07/28 11:00:26;;;;;;;0.25;0.25;;;20.30;99.90;;;;;;4936007;28;20383;-84
2022/07/28 11:02:55;;;;;;;0.30;0.30;;;21.00;99.90;;;;;;4933225;28;20039;-83
2022/07/28 11:05:39;;;;;;;0.30;0.30;;;21.20;99.90;;;;;;4918914;28;20512;-84
2022/07/28 11:08:08;;;;;;;0.30;0.30;;;21.00;99.90;;;;;;4933047;28;20054;-82
2022/07/28 11:10:51;;;;;;;0.30;0.30;;;21.20;99.90;;;;;;4932591;28;20073;-84
2022/07/28 11:13:34;;;;;;;0.30;0.30;;;21.20;99.90;;;;;;4932069;28;20421;-83
2022/07/28 11:16:13;;;;;;;0.30;0.30;;;21.40;99.90;;;;;;4933570;28;20129;-83
2022/07/28 11:19:00;;;;;;;0.30;0.30;;;21.60;99.90;;;;;;4948706;28;20054;-82
2022/07/28 11:21:26;;;;;;;0.30;0.30;;;21.50;99.90;;;;;;4949555;28;20042;-83
2022/07/28 11:23:54;;;;;;;0.30;0.30;;;21.60;99.90;;;;;;4935811;28;20061;-83
2022/07/28 11:26:21;;;;;;;0.30;0.30;;;21.50;99.90;;;;;;4934908;28;20042;-83
2022/07/28 11:28:59;;;;;;;0.30;0.30;;;21.20;99.90;;;;;;4919028;28;20055;-82
2022/07/28 11:31:45;;;;;;;0.30;0.30;;;21.10;99.90;;;;;;4954808;28;20056;-85
2022/07/28 11:34:15;;;;;;;0.30;0.30;;;21.80;99.90;;;;;;4914020;28;20059;-83
2022/07/28 11:37:03;;;;;;;0.30;0.30;;;22.30;99.60;;;;;;4938363;28;20391;-84
2022/07/28 11:39:39;;;;;;;0.30;0.30;;;22.90;99.90;;;;;;4949748;28;20830;-84
2022/07/28 11:42:28;;;;;;;0.30;0.30;;;22.80;99.90;;;;;;4916260;28;20121;-83
2022/07/28 11:44:55;;;;;;;0.30;0.30;;;22.50;99.50;;;;;;4944395;28;20051;-84
2022/07/28 11:47:27;;;;;;;0.25;0.25;;;23.20;99.90;;;;;;4932294;28;20082;-85
2022/07/28 11:50:16;;;;;;;0.20;0.20;;;22.90;98.90;;;;;;4931104;28;20520;-84
2022/07/28 11:52:53;;;;;;;0.20;0.20;;;23.30;99.60;;;;;;4932963;28;21358;-85
2022/07/28 11:55:19;;;;;;;0.30;0.30;;;22.40;97.60;;;;;;4945597;28;20149;-84
2022/07/28 11:57:46;;;;;;;0.30;0.30;;;23.40;99.30;;;;;;4931397;28;20054;-84
2022/07/28 12:00:22;;;;;;;0.30;0.30;;;23.20;98.00;;;;;;4929369;28;20065;-84
2022/07/28 12:02:48;;;;;;;0.25;0.25;;;22.00;96.10;;;;;;4920143;28;20924;-85
2022/07/28 12:05:16;;;;;;;0.20;0.20;;;21.70;97.50;;;;;;4934029;28;20614;-84
2022/07/28 12:07:51;;;;;;;0.30;0.30;;;21.80;98.30;;;;;;4944279;28;20047;-84
2022/07/28 12:10:32;;;;;;;0.30;0.30;;;22.00;99.00;;;;;;4934164;28;20101;-84
2022/07/28 12:13:04;;;;;;;0.28;0.28;;;21.90;96.70;;;;;;4937287;28;20047;-84
2022/07/28 12:15:30;;;;;;;0.30;0.30;;;21.70;98.20;;;;;;4934016;28;20057;-84
2022/07/28 12:17:58;;;;;;;0.28;0.28;;;21.90;98.10;;;;;;4949264;28;20058;-83
2022/07/28 12:20:30;;;;;;;0.30;0.30;;;22.60;99.30;;;;;;4950335;28;20050;-84
2022/07/28 12:23:06;;;;;;;0.20;0.20;;;23.10;98.00;;;;;;4931843;28;20050;-83
2022/07/28 12:25:43;;;;;;;0.30;0.30;;;21.80;96.50;;;;;;4929607;28;20050;-84
2022/07/28 12:28:17;;;;;;;0.22;0.22;;;22.10;99.50;;;;;;4929442;28;20120;-85
2022/07/28 12:30:43;;;;;;;;;;;22.10;98.60;;;;;;4935124;28;20622;-84
2022/07/28 12:33:20;;;;;;;0.30;0.30;;;21.30;98.20;;;;;;4950720;28;19926;-82
2022/07/28 12:35:50;;;;;;;0.30;0.30;;;22.20;99.40;;;;;;4948122;28;20050;-82
2022/07/28 12:38:16;;;;;;;0.30;0.30;;;22.70;97.40;;;;;;4933268;28;20168;-83
2022/07/28 12:40:43;;;;;;;0.30;0.30;;;22.40;96.40;;;;;;4917333;28;20556;-84
2022/07/28 12:43:09;;;;;;;0.30;0.30;;;22.60;97.40;;;;;;4917817;28;20062;-85
2022/07/28 12:45:45;;;;;;;0.30;0.30;;;22.50;95.50;;;;;;4916208;28;20047;-82
2022/07/28 12:48:12;;;;;;;0.30;0.30;;;22.30;96.20;;;;;;4929955;28;20063;-82
2022/07/28 12:50:39;;;;;;;0.30;0.30;;;22.50;97.60;;;;;;4930093;28;20769;-84
2022/07/28 12:53:07;;;;;;;0.30;0.30;;;23.00;97.30;;;;;;4931394;28;20054;-84
2022/07/28 12:55:33;;;;;;;0.30;0.30;;;22.60;94.30;;;;;;4928969;28;20061;-82
2022/07/28 12:58:00;;;;;;;0.30;0.30;;;22.70;97.10;;;;;;4930117;28;20145;-85
2022/07/28 13:00:32;;;;;;;0.30;0.30;;;22.80;95.80;;;;;;4935316;28;20416;-82